sensor_id;sensor_type;location;lat;lon;timestamp;P1;durP1;ratioP1;P2;durP2;ratioP2
44328;SDS011;30039;51.462;6.892;2024-01-16T00:01:11;9.75;;;4.43;;
44328;SDS011;30039;51.462;6.892;2024-01-16T00:03:57;12.50;;;4.10;;
44328;SDS011;30039;51.462;6.892;2024-01-16T00:06:43;7.07;;;4.07;;
44328;SDS011;30039;51.462;6.892;2024-01-16T00:09:29;10.95;;;3.97;;
44328;SDS011;30039;51.462;6.892;2024-01-16T00:12:14;8.25;;;4.50;;
44328;SDS011;30039;51.462;6.892;2024-01-16T00:15:00;10.00;;;4.03;;
44328;SDS011;30039;51.462;6.892;2024-01-16T00:17:46;9.52;;;4.65;;
44328;SDS011;30039;51.462;6.892;2024-01-16T00:20:31;10.40;;;4.32;;
44328;SDS011;30039;51.462;6.892;2024-01-16T00:23:17;7.85;;;4.35;;
44328;SDS011;30039;51.462;6.892;2024-01-16T00:26:02;7.93;;;4.25;;
44328;SDS011;30039;51.462;6.892;2024-01-16T00:28:48;7.80;;;3.65;;
44328;SDS011;30039;51.462;6.892;2024-01-16T00:31:33;11.00;;;3.78;;
44328;SDS011;30039;51.462;6.892;2024-01-16T00:34:19;8.30;;;3.70;;
44328;SDS011;30039;51.462;6.892;2024-01-16T00:37:05;7.03;;;3.63;;
44328;SDS011;30039;51.462;6.892;2024-01-16T00:39:50;5.70;;;3.40;;
44328;SDS011;30039;51.462;6.892;2024-01-16T00:42:36;9.82;;;3.63;;
44328;SDS011;30039;51.462;6.892;2024-01-16T00:45:21;6.40;;;3.38;;
44328;SDS011;30039;51.462;6.892;2024-01-16T00:48:07;5.57;;;3.28;;
44328;SDS011;30039;51.462;6.892;2024-01-16T00:50:55;5.40;;;3.38;;
44328;SDS011;30039;51.462;6.892;2024-01-16T00:53:41;7.25;;;3.80;;
44328;SDS011;30039;51.462;6.892;2024-01-16T00:56:27;7.18;;;3.80;;
44328;SDS011;30039;51.462;6.892;2024-01-16T00:59:13;7.95;;;3.70;;
44328;SDS011;30039;51.462;6.892;2024-01-16T01:01:58;6.68;;;4.30;;
44328;SDS011;30039;51.462;6.892;2024-01-16T01:04:44;9.60;;;3.63;;
44328;SDS011;30039;51.462;6.892;2024-01-16T01:07:29;10.00;;;3.65;;
44328;SDS011;30039;51.462;6.892;2024-01-16T01:10:15;7.03;;;3.70;;
44328;SDS011;30039;51.462;6.892;2024-01-16T01:13:01;6.15;;;3.80;;
44328;SDS011;30039;51.462;6.892;2024-01-16T01:15:46;5.93;;;3.67;;
44328;SDS011;30039;51.462;6.892;2024-01-16T01:18:32;7.63;;;3.50;;
44328;SDS011;30039;51.462;6.892;2024-01-16T01:21:18;9.23;;;3.97;;
44328;SDS011;30039;51.462;6.892;2024-01-16T01:24:03;8.13;;;3.63;;
44328;SDS011;30039;51.462;6.892;2024-01-16T01:26:49;7.93;;;3.60;;
44328;SDS011;30039;51.462;6.892;2024-01-16T01:29:35;10.68;;;4.07;;
44328;SDS011;30039;51.462;6.892;2024-01-16T01:32:20;6.75;;;3.55;;
44328;SDS011;30039;51.462;6.892;2024-01-16T01:35:06;7.75;;;3.97;;
44328;SDS011;30039;51.462;6.892;2024-01-16T01:37:52;5.30;;;3.30;;
44328;SDS011;30039;51.462;6.892;2024-01-16T01:40:37;7.22;;;3.53;;
44328;SDS011;30039;51.462;6.892;2024-01-16T01:43:23;7.15;;;3.70;;
44328;SDS011;30039;51.462;6.892;2024-01-16T01:46:11;5.95;;;3.72;;
44328;SDS011;30039;51.462;6.892;2024-01-16T01:48:57;10.45;;;3.60;;
44328;SDS011;30039;51.462;6.892;2024-01-16T01:51:43;6.28;;;4.10;;
44328;SDS011;30039;51.462;6.892;2024-01-16T01:54:29;7.90;;;3.40;;
44328;SDS011;30039;51.462;6.892;2024-01-16T01:57:15;6.72;;;3.88;;
44328;SDS011;30039;51.462;6.892;2024-01-16T02:00:01;7.40;;;4.20;;
44328;SDS011;30039;51.462;6.892;2024-01-16T02:02:48;8.00;;;4.47;;
44328;SDS011;30039;51.462;6.892;2024-01-16T02:05:34;8.20;;;4.10;;
44328;SDS011;30039;51.462;6.892;2024-01-16T02:08:20;8.30;;;4.00;;
44328;SDS011;30039;51.462;6.892;2024-01-16T02:11:06;8.55;;;3.92;;
44328;SDS011;30039;51.462;6.892;2024-01-16T02:13:51;7.45;;;4.18;;
44328;SDS011;30039;51.462;6.892;2024-01-16T02:16:38;7.43;;;4.18;;
44328;SDS011;30039;51.462;6.892;2024-01-16T02:19:24;8.48;;;4.80;;
44328;SDS011;30039;51.462;6.892;2024-01-16T02:22:13;7.68;;;4.35;;
44328;SDS011;30039;51.462;6.892;2024-01-16T02:25:01;9.13;;;4.55;;
44328;SDS011;30039;51.462;6.892;2024-01-16T02:27:46;6.75;;;4.30;;
44328;SDS011;30039;51.462;6.892;2024-01-16T02:30:32;9.15;;;4.32;;
44328;SDS011;30039;51.462;6.892;2024-01-16T02:33:19;9.07;;;4.53;;
44328;SDS011;30039;51.462;6.892;2024-01-16T02:36:04;7.57;;;3.83;;
44328;SDS011;30039;51.462;6.892;2024-01-16T02:38:50;7.03;;;4.85;;
44328;SDS011;30039;51.462;6.892;2024-01-16T02:41:36;8.10;;;4.95;;
44328;SDS011;30039;51.462;6.892;2024-01-16T02:44:21;8.25;;;4.05;;
44328;SDS011;30039;51.462;6.892;2024-01-16T02:47:07;8.73;;;5.20;;
44328;SDS011;30039;51.462;6.892;2024-01-16T02:49:53;9.73;;;5.20;;
44328;SDS011;30039;51.462;6.892;2024-01-16T02:52:38;8.77;;;5.53;;
44328;SDS011;30039;51.462;6.892;2024-01-16T02:55:24;11.40;;;5.80;;
44328;SDS011;30039;51.462;6.892;2024-01-16T02:58:10;10.02;;;7.00;;
44328;SDS011;30039;51.462;6.892;2024-01-16T03:00:56;12.38;;;6.63;;
44328;SDS011;30039;51.462;6.892;2024-01-16T03:03:41;8.70;;;6.10;;
44328;SDS011;30039;51.462;6.892;2024-01-16T03:06:27;10.98;;;7.47;;
44328;SDS011;30039;51.462;6.892;2024-01-16T03:09:14;9.70;;;6.63;;
44328;SDS011;30039;51.462;6.892;2024-01-16T03:11:59;10.25;;;6.28;;
44328;SDS011;30039;51.462;6.892;2024-01-16T03:14:45;10.82;;;7.18;;
44328;SDS011;30039;51.462;6.892;2024-01-16T03:17:30;13.10;;;8.15;;
44328;SDS011;30039;51.462;6.892;2024-01-16T03:20:16;11.23;;;7.32;;
44328;SDS011;30039;51.462;6.892;2024-01-16T03:23:02;11.35;;;7.40;;
44328;SDS011;30039;51.462;6.892;2024-01-16T03:25:48;10.57;;;7.85;;
44328;SDS011;30039;51.462;6.892;2024-01-16T03:28:33;12.93;;;8.52;;
44328;SDS011;30039;51.462;6.892;2024-01-16T03:31:19;10.93;;;8.10;;
44328;SDS011;30039;51.462;6.892;2024-01-16T03:34:06;12.40;;;7.97;;
44328;SDS011;30039;51.462;6.892;2024-01-16T03:36:55;9.88;;;7.50;;
44328;SDS011;30039;51.462;6.892;2024-01-16T03:39:41;12.88;;;8.10;;
44328;SDS011;30039;51.462;6.892;2024-01-16T03:42:27;13.73;;;8.63;;
44328;SDS011;30039;51.462;6.892;2024-01-16T03:45:12;12.60;;;8.30;;
44328;SDS011;30039;51.462;6.892;2024-01-16T03:47:58;11.85;;;8.32;;
44328;SDS011;30039;51.462;6.892;2024-01-16T03:50:44;14.07;;;8.43;;
44328;SDS011;30039;51.462;6.892;2024-01-16T03:53:30;14.60;;;8.27;;
44328;SDS011;30039;51.462;6.892;2024-01-16T03:56:16;15.98;;;8.35;;
44328;SDS011;30039;51.462;6.892;2024-01-16T03:59:02;14.65;;;8.20;;
44328;SDS011;30039;51.462;6.892;2024-01-16T04:01:49;12.40;;;8.32;;
44328;SDS011;30039;51.462;6.892;2024-01-16T04:04:35;10.63;;;7.75;;
44328;SDS011;30039;51.462;6.892;2024-01-16T04:07:22;11.95;;;7.95;;
44328;SDS011;30039;51.462;6.892;2024-01-16T04:10:08;14.98;;;8.52;;
44328;SDS011;30039;51.462;6.892;2024-01-16T04:12:53;12.15;;;8.45;;
44328;SDS011;30039;51.462;6.892;2024-01-16T04:15:39;14.60;;;8.73;;
44328;SDS011;30039;51.462;6.892;2024-01-16T04:18:25;15.00;;;8.55;;
44328;SDS011;30039;51.462;6.892;2024-01-16T04:21:10;14.45;;;8.38;;
44328;SDS011;30039;51.462;6.892;2024-01-16T04:23:56;12.43;;;8.25;;
44328;SDS011;30039;51.462;6.892;2024-01-16T04:26:42;18.55;;;8.52;;
44328;SDS011;30039;51.462;6.892;2024-01-16T04:29:27;14.57;;;8.45;;
44328;SDS011;30039;51.462;6.892;2024-01-16T04:32:13;13.35;;;8.32;;
44328;SDS011;30039;51.462;6.892;2024-01-16T04:34:58;12.55;;;7.20;;
44328;SDS011;30039;51.462;6.892;2024-01-16T04:37:44;11.65;;;6.90;;
44328;SDS011;30039;51.462;6.892;2024-01-16T04:40:30;11.23;;;6.85;;
44328;SDS011;30039;51.462;6.892;2024-01-16T04:43:15;11.15;;;7.00;;
44328;SDS011;30039;51.462;6.892;2024-01-16T04:46:01;12.30;;;6.05;;
44328;SDS011;30039;51.462;6.892;2024-01-16T04:48:46;11.85;;;6.13;;
44328;SDS011;30039;51.462;6.892;2024-01-16T04:51:32;11.98;;;6.47;;
44328;SDS011;30039;51.462;6.892;2024-01-16T04:54:18;11.65;;;6.15;;
44328;SDS011;30039;51.462;6.892;2024-01-16T04:57:04;9.82;;;5.97;;
44328;SDS011;30039;51.462;6.892;2024-01-16T04:59:50;7.07;;;5.20;;
44328;SDS011;30039;51.462;6.892;2024-01-16T05:02:36;9.90;;;5.35;;
44328;SDS011;30039;51.462;6.892;2024-01-16T05:05:21;6.43;;;4.78;;
44328;SDS011;30039;51.462;6.892;2024-01-16T05:08:07;11.13;;;5.18;;
44328;SDS011;30039;51.462;6.892;2024-01-16T05:10:53;8.07;;;5.13;;
44328;SDS011;30039;51.462;6.892;2024-01-16T05:13:38;7.47;;;4.40;;
44328;SDS011;30039;51.462;6.892;2024-01-16T05:16:24;9.70;;;5.10;;
44328;SDS011;30039;51.462;6.892;2024-01-16T05:19:10;6.57;;;4.22;;
44328;SDS011;30039;51.462;6.892;2024-01-16T05:21:55;8.70;;;4.25;;
44328;SDS011;30039;51.462;6.892;2024-01-16T05:24:41;11.40;;;4.10;;
44328;SDS011;30039;51.462;6.892;2024-01-16T05:27:27;7.95;;;3.70;;
44328;SDS011;30039;51.462;6.892;2024-01-16T05:30:12;5.70;;;3.38;;
44328;SDS011;30039;51.462;6.892;2024-01-16T05:32:58;9.02;;;3.85;;
44328;SDS011;30039;51.462;6.892;2024-01-16T05:35:46;6.35;;;3.60;;
44328;SDS011;30039;51.462;6.892;2024-01-16T05:38:31;5.97;;;3.45;;
44328;SDS011;30039;51.462;6.892;2024-01-16T05:41:17;7.90;;;3.72;;
44328;SDS011;30039;51.462;6.892;2024-01-16T05:44:03;5.93;;;3.85;;
44328;SDS011;30039;51.462;6.892;2024-01-16T05:46:51;9.13;;;4.30;;
44328;SDS011;30039;51.462;6.892;2024-01-16T05:49:37;6.93;;;4.63;;
44328;SDS011;30039;51.462;6.892;2024-01-16T05:52:22;9.15;;;5.00;;
44328;SDS011;30039;51.462;6.892;2024-01-16T05:55:08;9.55;;;5.00;;
44328;SDS011;30039;51.462;6.892;2024-01-16T05:57:54;8.25;;;5.07;;
44328;SDS011;30039;51.462;6.892;2024-01-16T06:00:39;9.05;;;5.97;;
44328;SDS011;30039;51.462;6.892;2024-01-16T06:03:26;13.20;;;7.68;;
44328;SDS011;30039;51.462;6.892;2024-01-16T06:06:11;12.90;;;7.18;;
44328;SDS011;30039;51.462;6.892;2024-01-16T06:08:57;15.50;;;8.30;;
44328;SDS011;30039;51.462;6.892;2024-01-16T06:11:45;15.68;;;8.90;;
44328;SDS011;30039;51.462;6.892;2024-01-16T06:14:30;19.02;;;9.55;;
44328;SDS011;30039;51.462;6.892;2024-01-16T06:17:16;15.70;;;10.00;;
44328;SDS011;30039;51.462;6.892;2024-01-16T06:20:01;16.90;;;10.45;;
44328;SDS011;30039;51.462;6.892;2024-01-16T06:22:48;18.20;;;8.93;;
44328;SDS011;30039;51.462;6.892;2024-01-16T06:25:33;17.85;;;9.18;;
44328;SDS011;30039;51.462;6.892;2024-01-16T06:28:19;15.90;;;9.30;;
44328;SDS011;30039;51.462;6.892;2024-01-16T06:31:04;13.85;;;8.77;;
44328;SDS011;30039;51.462;6.892;2024-01-16T06:33:50;14.40;;;8.18;;
44328;SDS011;30039;51.462;6.892;2024-01-16T06:36:36;15.27;;;8.35;;
44328;SDS011;30039;51.462;6.892;2024-01-16T06:39:21;15.45;;;8.73;;
44328;SDS011;30039;51.462;6.892;2024-01-16T06:42:07;16.42;;;9.07;;
44328;SDS011;30039;51.462;6.892;2024-01-16T06:44:52;15.35;;;9.82;;
44328;SDS011;30039;51.462;6.892;2024-01-16T06:47:38;13.20;;;8.20;;
44328;SDS011;30039;51.462;6.892;2024-01-16T06:50:24;16.27;;;8.52;;
44328;SDS011;30039;51.462;6.892;2024-01-16T06:53:09;16.02;;;8.13;;
44328;SDS011;30039;51.462;6.892;2024-01-16T06:55:55;14.02;;;8.10;;
44328;SDS011;30039;51.462;6.892;2024-01-16T06:58:40;14.45;;;6.97;;
44328;SDS011;30039;51.462;6.892;2024-01-16T07:01:26;14.95;;;8.02;;
44328;SDS011;30039;51.462;6.892;2024-01-16T07:04:12;15.93;;;7.40;;
44328;SDS011;30039;51.462;6.892;2024-01-16T07:06:59;14.73;;;7.15;;
44328;SDS011;30039;51.462;6.892;2024-01-16T07:09:45;13.73;;;6.95;;
44328;SDS011;30039;51.462;6.892;2024-01-16T07:12:31;13.43;;;6.65;;
44328;SDS011;30039;51.462;6.892;2024-01-16T07:15:17;11.93;;;6.25;;
44328;SDS011;30039;51.462;6.892;2024-01-16T07:18:02;18.30;;;6.55;;
44328;SDS011;30039;51.462;6.892;2024-01-16T07:20:48;11.93;;;5.88;;
44328;SDS011;30039;51.462;6.892;2024-01-16T07:23:33;15.20;;;5.43;;
44328;SDS011;30039;51.462;6.892;2024-01-16T07:26:19;13.77;;;5.78;;
44328;SDS011;30039;51.462;6.892;2024-01-16T07:29:04;12.75;;;6.43;;
44328;SDS011;30039;51.462;6.892;2024-01-16T07:31:50;14.00;;;5.93;;
44328;SDS011;30039;51.462;6.892;2024-01-16T07:34:36;16.88;;;6.10;;
44328;SDS011;30039;51.462;6.892;2024-01-16T07:37:21;13.98;;;6.05;;
44328;SDS011;30039;51.462;6.892;2024-01-16T07:40:07;13.50;;;5.60;;
44328;SDS011;30039;51.462;6.892;2024-01-16T07:42:54;14.65;;;5.28;;
44328;SDS011;30039;51.462;6.892;2024-01-16T07:45:40;11.45;;;4.45;;
44328;SDS011;30039;51.462;6.892;2024-01-16T07:48:26;10.20;;;4.85;;
44328;SDS011;30039;51.462;6.892;2024-01-16T07:51:11;11.95;;;4.75;;
44328;SDS011;30039;51.462;6.892;2024-01-16T07:54:06;9.82;;;4.78;;
44328;SDS011;30039;51.462;6.892;2024-01-16T07:56:52;16.90;;;5.05;;
44328;SDS011;30039;51.462;6.892;2024-01-16T07:59:38;9.10;;;3.95;;
44328;SDS011;30039;51.462;6.892;2024-01-16T08:02:30;11.38;;;4.20;;
44328;SDS011;30039;51.462;6.892;2024-01-16T08:05:17;9.52;;;4.00;;
44328;SDS011;30039;51.462;6.892;2024-01-16T08:08:02;14.50;;;4.38;;
44328;SDS011;30039;51.462;6.892;2024-01-16T08:10:48;9.98;;;4.30;;
44328;SDS011;30039;51.462;6.892;2024-01-16T08:13:34;10.07;;;4.07;;
44328;SDS011;30039;51.462;6.892;2024-01-16T08:16:19;11.27;;;4.18;;
44328;SDS011;30039;51.462;6.892;2024-01-16T08:19:06;10.07;;;3.83;;
44328;SDS011;30039;51.462;6.892;2024-01-16T08:21:52;14.10;;;4.38;;
44328;SDS011;30039;51.462;6.892;2024-01-16T08:24:37;11.55;;;4.47;;
44328;SDS011;30039;51.462;6.892;2024-01-16T08:27:23;8.60;;;3.40;;
44328;SDS011;30039;51.462;6.892;2024-01-16T08:30:09;8.25;;;3.72;;
44328;SDS011;30039;51.462;6.892;2024-01-16T08:32:55;7.85;;;3.28;;
44328;SDS011;30039;51.462;6.892;2024-01-16T08:35:41;7.30;;;3.80;;
44328;SDS011;30039;51.462;6.892;2024-01-16T08:38:26;8.93;;;3.60;;
44328;SDS011;30039;51.462;6.892;2024-01-16T08:41:12;8.13;;;3.50;;
44328;SDS011;30039;51.462;6.892;2024-01-16T08:43:57;12.93;;;3.85;;
44328;SDS011;30039;51.462;6.892;2024-01-16T08:46:43;6.85;;;3.25;;
44328;SDS011;30039;51.462;6.892;2024-01-16T08:49:29;13.57;;;4.35;;
44328;SDS011;30039;51.462;6.892;2024-01-16T08:52:15;10.65;;;3.58;;
44328;SDS011;30039;51.462;6.892;2024-01-16T08:55:01;11.20;;;3.42;;
44328;SDS011;30039;51.462;6.892;2024-01-16T08:57:47;11.05;;;3.70;;
44328;SDS011;30039;51.462;6.892;2024-01-16T09:00:32;6.93;;;2.80;;
44328;SDS011;30039;51.462;6.892;2024-01-16T09:03:18;9.60;;;3.67;;
44328;SDS011;30039;51.462;6.892;2024-01-16T09:06:04;11.73;;;3.47;;
44328;SDS011;30039;51.462;6.892;2024-01-16T09:08:50;9.57;;;3.38;;
44328;SDS011;30039;51.462;6.892;2024-01-16T09:11:35;8.05;;;3.15;;
44328;SDS011;30039;51.462;6.892;2024-01-16T09:14:21;9.60;;;4.03;;
44328;SDS011;30039;51.462;6.892;2024-01-16T09:17:07;14.27;;;3.95;;
44328;SDS011;30039;51.462;6.892;2024-01-16T09:19:52;8.18;;;3.33;;
44328;SDS011;30039;51.462;6.892;2024-01-16T09:22:38;7.95;;;3.55;;
44328;SDS011;30039;51.462;6.892;2024-01-16T09:25:23;12.32;;;3.80;;
44328;SDS011;30039;51.462;6.892;2024-01-16T09:28:10;11.30;;;4.10;;
44328;SDS011;30039;51.462;6.892;2024-01-16T09:30:55;6.65;;;3.35;;
44328;SDS011;30039;51.462;6.892;2024-01-16T09:33:41;7.72;;;3.35;;
44328;SDS011;30039;51.462;6.892;2024-01-16T09:36:28;11.60;;;4.07;;
44328;SDS011;30039;51.462;6.892;2024-01-16T09:39:14;10.48;;;3.05;;
44328;SDS011;30039;51.462;6.892;2024-01-16T09:41:59;11.15;;;3.20;;
44328;SDS011;30039;51.462;6.892;2024-01-16T09:44:47;7.32;;;3.15;;
44328;SDS011;30039;51.462;6.892;2024-01-16T09:47:34;10.18;;;2.85;;
44328;SDS011;30039;51.462;6.892;2024-01-16T09:50:19;8.95;;;3.00;;
44328;SDS011;30039;51.462;6.892;2024-01-16T09:53:05;7.88;;;3.40;;
44328;SDS011;30039;51.462;6.892;2024-01-16T09:55:51;8.98;;;3.55;;
44328;SDS011;30039;51.462;6.892;2024-01-16T09:58:39;9.88;;;3.67;;
44328;SDS011;30039;51.462;6.892;2024-01-16T10:01:26;10.45;;;3.58;;
44328;SDS011;30039;51.462;6.892;2024-01-16T10:04:12;10.55;;;3.55;;
44328;SDS011;30039;51.462;6.892;2024-01-16T10:06:58;11.70;;;3.88;;
44328;SDS011;30039;51.462;6.892;2024-01-16T10:09:46;12.60;;;3.90;;
44328;SDS011;30039;51.462;6.892;2024-01-16T10:12:33;8.82;;;4.10;;
44328;SDS011;30039;51.462;6.892;2024-01-16T10:15:19;9.98;;;3.58;;
44328;SDS011;30039;51.462;6.892;2024-01-16T10:18:05;9.07;;;3.55;;
44328;SDS011;30039;51.462;6.892;2024-01-16T10:20:52;12.23;;;3.88;;
44328;SDS011;30039;51.462;6.892;2024-01-16T10:23:38;12.52;;;3.47;;
44328;SDS011;30039;51.462;6.892;2024-01-16T10:26:26;11.18;;;3.75;;
44328;SDS011;30039;51.462;6.892;2024-01-16T10:29:11;8.30;;;3.75;;
44328;SDS011;30039;51.462;6.892;2024-01-16T10:31:58;9.73;;;3.30;;
44328;SDS011;30039;51.462;6.892;2024-01-16T10:34:43;6.72;;;3.40;;
44328;SDS011;30039;51.462;6.892;2024-01-16T10:37:29;10.05;;;3.47;;
44328;SDS011;30039;51.462;6.892;2024-01-16T10:40:24;8.57;;;2.95;;
44328;SDS011;30039;51.462;6.892;2024-01-16T10:43:10;10.30;;;3.28;;
44328;SDS011;30039;51.462;6.892;2024-01-16T10:46:23;11.27;;;3.15;;
44328;SDS011;30039;51.462;6.892;2024-01-16T10:49:08;8.52;;;3.28;;
44328;SDS011;30039;51.462;6.892;2024-01-16T10:51:54;8.80;;;3.40;;
44328;SDS011;30039;51.462;6.892;2024-01-16T10:54:42;6.47;;;3.00;;
44328;SDS011;30039;51.462;6.892;2024-01-16T10:57:31;6.30;;;2.83;;
44328;SDS011;30039;51.462;6.892;2024-01-16T11:00:20;7.28;;;2.80;;
44328;SDS011;30039;51.462;6.892;2024-01-16T11:03:11;10.63;;;3.38;;
44328;SDS011;30039;51.462;6.892;2024-01-16T11:05:57;10.20;;;3.55;;
44328;SDS011;30039;51.462;6.892;2024-01-16T11:08:46;10.38;;;3.45;;
44328;SDS011;30039;51.462;6.892;2024-01-16T11:11:32;11.80;;;3.22;;
44328;SDS011;30039;51.462;6.892;2024-01-16T11:14:19;12.50;;;3.40;;
44328;SDS011;30039;51.462;6.892;2024-01-16T11:17:08;11.10;;;3.47;;
44328;SDS011;30039;51.462;6.892;2024-01-16T11:19:57;10.70;;;3.38;;
44328;SDS011;30039;51.462;6.892;2024-01-16T11:22:43;8.43;;;3.45;;
44328;SDS011;30039;51.462;6.892;2024-01-16T11:25:30;11.13;;;3.53;;
44328;SDS011;30039;51.462;6.892;2024-01-16T11:28:16;9.65;;;3.58;;
44328;SDS011;30039;51.462;6.892;2024-01-16T11:31:26;7.32;;;3.10;;
44328;SDS011;30039;51.462;6.892;2024-01-16T11:34:09;9.38;;;3.22;;
44328;SDS011;30039;51.462;6.892;2024-01-16T11:36:55;10.60;;;3.33;;
44328;SDS011;30039;51.462;6.892;2024-01-16T11:39:41;10.20;;;3.03;;
44328;SDS011;30039;51.462;6.892;2024-01-16T11:42:26;9.18;;;3.15;;
44328;SDS011;30039;51.462;6.892;2024-01-16T11:48:13;9.88;;;2.80;;
44328;SDS011;30039;51.462;6.892;2024-01-16T11:50:59;10.43;;;3.28;;
44328;SDS011;30039;51.462;6.892;2024-01-16T11:53:45;9.25;;;2.80;;
44328;SDS011;30039;51.462;6.892;2024-01-16T12:03:00;8.35;;;2.97;;
44328;SDS011;30039;51.462;6.892;2024-01-16T12:05:54;10.88;;;3.38;;
44328;SDS011;30039;51.462;6.892;2024-01-16T12:08:39;6.57;;;3.20;;
44328;SDS011;30039;51.462;6.892;2024-01-16T12:11:25;9.38;;;3.70;;
44328;SDS011;30039;51.462;6.892;2024-01-16T12:14:14;8.95;;;3.30;;
44328;SDS011;30039;51.462;6.892;2024-01-16T12:17:12;10.15;;;3.70;;
44328;SDS011;30039;51.462;6.892;2024-01-16T12:19:59;7.78;;;2.80;;
44328;SDS011;30039;51.462;6.892;2024-01-16T12:22:44;7.45;;;3.25;;
44328;SDS011;30039;51.462;6.892;2024-01-16T12:25:30;6.97;;;3.00;;
44328;SDS011;30039;51.462;6.892;2024-01-16T12:28:17;9.68;;;2.95;;
44328;SDS011;30039;51.462;6.892;2024-01-16T12:31:05;9.18;;;3.03;;
44328;SDS011;30039;51.462;6.892;2024-01-16T12:33:51;6.82;;;3.30;;
44328;SDS011;30039;51.462;6.892;2024-01-16T12:36:37;7.65;;;3.17;;
44328;SDS011;30039;51.462;6.892;2024-01-16T12:39:25;6.40;;;2.95;;
44328;SDS011;30039;51.462;6.892;2024-01-16T12:42:11;10.73;;;3.42;;
44328;SDS011;30039;51.462;6.892;2024-01-16T12:44:57;11.50;;;3.30;;
44328;SDS011;30039;51.462;6.892;2024-01-16T12:47:43;7.65;;;3.40;;
44328;SDS011;30039;51.462;6.892;2024-01-16T12:50:30;9.40;;;3.33;;
44328;SDS011;30039;51.462;6.892;2024-01-16T12:53:16;8.57;;;3.53;;
44328;SDS011;30039;51.462;6.892;2024-01-16T12:56:04;10.57;;;3.40;;
44328;SDS011;30039;51.462;6.892;2024-01-16T12:58:50;10.15;;;3.22;;
44328;SDS011;30039;51.462;6.892;2024-01-16T13:01:35;12.48;;;3.33;;
44328;SDS011;30039;51.462;6.892;2024-01-16T13:04:21;8.00;;;3.20;;
44328;SDS011;30039;51.462;6.892;2024-01-16T13:07:07;7.05;;;3.40;;
44328;SDS011;30039;51.462;6.892;2024-01-16T13:10:08;11.60;;;3.70;;
44328;SDS011;30039;51.462;6.892;2024-01-16T13:13:10;7.55;;;3.33;;
44328;SDS011;30039;51.462;6.892;2024-01-16T13:15:57;11.82;;;3.47;;
44328;SDS011;30039;51.462;6.892;2024-01-16T13:18:42;13.70;;;3.58;;
44328;SDS011;30039;51.462;6.892;2024-01-16T13:21:28;9.00;;;3.67;;
44328;SDS011;30039;51.462;6.892;2024-01-16T13:24:14;10.10;;;3.65;;
44328;SDS011;30039;51.462;6.892;2024-01-16T13:26:59;7.75;;;3.75;;
44328;SDS011;30039;51.462;6.892;2024-01-16T13:29:46;10.02;;;3.72;;
44328;SDS011;30039;51.462;6.892;2024-01-16T13:32:31;11.50;;;3.88;;
44328;SDS011;30039;51.462;6.892;2024-01-16T13:35:17;11.10;;;4.40;;
44328;SDS011;30039;51.462;6.892;2024-01-16T13:38:03;13.88;;;3.67;;
44328;SDS011;30039;51.462;6.892;2024-01-16T13:40:49;11.73;;;4.57;;
44328;SDS011;30039;51.462;6.892;2024-01-16T13:43:35;11.80;;;4.30;;
44328;SDS011;30039;51.462;6.892;2024-01-16T13:46:23;8.25;;;3.95;;
44328;SDS011;30039;51.462;6.892;2024-01-16T13:49:08;7.55;;;4.18;;
44328;SDS011;30039;51.462;6.892;2024-01-16T13:51:54;8.82;;;4.07;;
44328;SDS011;30039;51.462;6.892;2024-01-16T13:54:39;12.77;;;5.70;;
44328;SDS011;30039;51.462;6.892;2024-01-16T13:57:25;12.73;;;4.60;;
44328;SDS011;30039;51.462;6.892;2024-01-16T14:00:11;11.45;;;3.83;;
44328;SDS011;30039;51.462;6.892;2024-01-16T14:03:01;11.05;;;4.32;;
44328;SDS011;30039;51.462;6.892;2024-01-16T14:05:48;8.25;;;4.07;;
44328;SDS011;30039;51.462;6.892;2024-01-16T14:08:34;11.38;;;4.22;;
44328;SDS011;30039;51.462;6.892;2024-01-16T14:11:19;12.48;;;4.47;;
44328;SDS011;30039;51.462;6.892;2024-01-16T14:14:05;11.70;;;3.90;;
44328;SDS011;30039;51.462;6.892;2024-01-16T14:16:51;10.30;;;3.92;;
44328;SDS011;30039;51.462;6.892;2024-01-16T14:19:36;10.80;;;4.00;;
44328;SDS011;30039;51.462;6.892;2024-01-16T14:22:23;10.02;;;3.72;;
44328;SDS011;30039;51.462;6.892;2024-01-16T14:25:09;9.40;;;4.55;;
44328;SDS011;30039;51.462;6.892;2024-01-16T14:27:59;7.93;;;3.80;;
44328;SDS011;30039;51.462;6.892;2024-01-16T14:30:45;10.02;;;4.20;;
44328;SDS011;30039;51.462;6.892;2024-01-16T14:33:30;8.15;;;3.58;;
44328;SDS011;30039;51.462;6.892;2024-01-16T14:36:16;9.70;;;3.80;;
44328;SDS011;30039;51.462;6.892;2024-01-16T14:39:01;8.13;;;3.50;;
44328;SDS011;30039;51.462;6.892;2024-01-16T14:41:47;10.35;;;3.78;;
44328;SDS011;30039;51.462;6.892;2024-01-16T14:44:33;12.00;;;3.90;;
44328;SDS011;30039;51.462;6.892;2024-01-16T14:47:18;7.03;;;3.60;;
44328;SDS011;30039;51.462;6.892;2024-01-16T14:50:04;9.10;;;3.67;;
44328;SDS011;30039;51.462;6.892;2024-01-16T14:52:53;7.90;;;3.35;;
44328;SDS011;30039;51.462;6.892;2024-01-16T14:55:38;7.30;;;3.83;;
44328;SDS011;30039;51.462;6.892;2024-01-16T14:58:24;8.20;;;3.65;;
44328;SDS011;30039;51.462;6.892;2024-01-16T15:01:10;7.70;;;3.83;;
44328;SDS011;30039;51.462;6.892;2024-01-16T15:03:56;12.05;;;3.75;;
44328;SDS011;30039;51.462;6.892;2024-01-16T15:06:42;6.63;;;3.72;;
44328;SDS011;30039;51.462;6.892;2024-01-16T15:09:28;10.15;;;4.38;;
44328;SDS011;30039;51.462;6.892;2024-01-16T15:12:14;8.73;;;4.40;;
44328;SDS011;30039;51.462;6.892;2024-01-16T15:14:59;7.57;;;3.83;;
44328;SDS011;30039;51.462;6.892;2024-01-16T15:17:45;10.68;;;4.10;;
44328;SDS011;30039;51.462;6.892;2024-01-16T15:20:30;9.85;;;3.67;;
44328;SDS011;30039;51.462;6.892;2024-01-16T15:23:16;8.52;;;3.80;;
44328;SDS011;30039;51.462;6.892;2024-01-16T15:26:02;9.52;;;3.70;;
44328;SDS011;30039;51.462;6.892;2024-01-16T15:28:49;8.35;;;4.00;;
44328;SDS011;30039;51.462;6.892;2024-01-16T15:31:35;12.10;;;4.03;;
44328;SDS011;30039;51.462;6.892;2024-01-16T15:34:21;8.57;;;4.38;;
44328;SDS011;30039;51.462;6.892;2024-01-16T15:37:06;9.95;;;3.92;;
44328;SDS011;30039;51.462;6.892;2024-01-16T15:39:52;7.35;;;4.28;;
44328;SDS011;30039;51.462;6.892;2024-01-16T15:42:38;9.25;;;4.05;;
44328;SDS011;30039;51.462;6.892;2024-01-16T15:45:24;9.13;;;3.67;;
44328;SDS011;30039;51.462;6.892;2024-01-16T15:48:11;9.35;;;4.25;;
44328;SDS011;30039;51.462;6.892;2024-01-16T15:50:57;10.57;;;3.90;;
44328;SDS011;30039;51.462;6.892;2024-01-16T15:53:43;8.80;;;3.47;;
44328;SDS011;30039;51.462;6.892;2024-01-16T15:56:29;10.73;;;4.18;;
44328;SDS011;30039;51.462;6.892;2024-01-16T15:59:14;7.93;;;3.85;;
44328;SDS011;30039;51.462;6.892;2024-01-16T16:02:00;9.85;;;4.22;;
44328;SDS011;30039;51.462;6.892;2024-01-16T16:04:45;9.63;;;3.65;;
44328;SDS011;30039;51.462;6.892;2024-01-16T16:07:32;10.75;;;4.05;;
44328;SDS011;30039;51.462;6.892;2024-01-16T16:10:17;11.02;;;4.30;;
44328;SDS011;30039;51.462;6.892;2024-01-16T16:13:03;9.35;;;3.83;;
44328;SDS011;30039;51.462;6.892;2024-01-16T16:15:49;8.98;;;4.00;;
44328;SDS011;30039;51.462;6.892;2024-01-16T16:18:35;9.18;;;4.05;;
44328;SDS011;30039;51.462;6.892;2024-01-16T16:21:22;7.55;;;4.10;;
44328;SDS011;30039;51.462;6.892;2024-01-16T16:24:08;8.90;;;3.92;;
44328;SDS011;30039;51.462;6.892;2024-01-16T16:26:54;11.88;;;4.78;;
44328;SDS011;30039;51.462;6.892;2024-01-16T16:29:41;7.45;;;3.63;;
44328;SDS011;30039;51.462;6.892;2024-01-16T16:32:26;12.52;;;3.90;;
44328;SDS011;30039;51.462;6.892;2024-01-16T16:35:12;8.57;;;3.75;;
44328;SDS011;30039;51.462;6.892;2024-01-16T16:37:58;10.18;;;4.35;;
44328;SDS011;30039;51.462;6.892;2024-01-16T16:40:43;8.85;;;4.43;;
44328;SDS011;30039;51.462;6.892;2024-01-16T16:43:29;7.72;;;4.25;;